Relevés horaires Koksijde (Belgique)


Relevés horaires à Koksijde - Mardi 16 Mai 2023
Heure UTC1 Température [°C] Vent [km/h] Hum. [%] Pres.4 [hPa] Visi. [Km] Nébu. [octa] Préc.5 [mm] Cond.
2m. Res. Ros. Dir.2 Vit. Moy. Raf.3
23:00 7.8 7.8 5.2 NNO 1.9 -- 1.9 84 1026.4(0.6/3h) 20 -- -- --
22:00 8.3 8.3 4.9 NNO 1.9 -- 5.6 79 1026.2(0.9/3h) 20 -- -- --
21:00 9.5 9 5.3 N 5.6 -- 13.0 75 1026(1.2/3h) 20 0/8 -- --
20:00 10.5 10.2 4.8 N 5.6 -- 11.1 68 1025.7(1.2/3h) 20 0/8 -- --
19:00 11.9 11 6.7 N 9.3 -- 13.0 70 1025.2(0.9/3h) 20 0/8 -- --
18:00 12.6 12.6 8.7 NNO 5.6 -- 13.0 77 1024.7(0.6/3h) 20 0/8 0.1/12h
--
16:00 13.4 13.4 6.4 NO 5.6 -- 11.1 63 1024.2(0.0/3h) 20 0/8 -- --
15:00 13.7 13.5 6.4 ONO 7.4 -- 13.0 61 1024(-0.1/3h) 20 0/8 -- --
14:00 13.4 12.8 6.2 NO 9.3 -- 13.0 62 1024.2(0.0/3h) 20 0/8 -- --
13:00 13.3 13 6.5 NO 7.4 -- 11.1 63 1024.2(0.0/3h) 20 0/8 -- --
12:00 12.5 12.1 4.5 NO 7.4 -- 14.8 58 1024.2(0.1/3h) 20 0/8 trace/6h
--
11:00 12.3 11.8 5.6 NO 7.4 -- 14.8 64 1024.2(0.3/3h) 20 0/8 -- --
10:00 12.3 11.8 5.7 NNO 7.4 -- 13.0 64 1024.2(0.5/3h) 20 0/8 -- --
09:00 11.8 11.2 5.3 N 7.4 -- 13.0 64 1024(0.9/3h) 20 3/8 -- --
06:00 10.0 9.1 5.6 N 7.4 -- 14.8 74 1023.2(0.7/3h) 20 3/8 -- --
05:00 9.7 9.7 5.7 N 3.7 -- 11.1 76 1022.8(0.6/3h) 20 3/8 -- --
04:00 9.0 8 3.6 N 7.4 -- 14.8 69 1022.6(0.5/3h) 20 -- -- --
03:00 8.7 7.2 4.4 N 9.3 -- 14.8 74 1022.3(0.2/3h) 20 -- -- --
02:00 9.2 8.2 4.4 NNO 7.4 -- 13.0 72 1022.2(0.2/3h) 20 -- -- --
01:00 9.3 8.3 5.0 N 7.4 -- 13.0 74 1022.1(0.1/3h) 20 -- -- --
00:00 9.4 8.4 4.8 N 7.4 -- 24.1 73 1022.2(0.5/3h) 20 -- -- --

1 Coordinated Universal Time. Actuellement il est 23:00 locale et 21:00 UTC.

2 Le vent souffle depuis la direction indiquée vers la direction oposée.

3 Les rafales max. sont disponible 40 min après l'heure du relevé.

4 Pour les stations d'altitude (plus de 600m) le géopotentiel du niveau le plus proche de la pression obligatoire est indiqué.

5 Les stations disposant d'un diffuseur peuvent indiquer "trace". Cela signifie que des précipitations ont touchés le sol mais que la quantité est inférieure à 0.1 mm.

Récapitulatif de la journée
Température [°C] Vent [km/h] Ensoleillement4 [h] Precipitations totale5 [mm] Pression [Hpa]
Min1 Max.2 Moy.3 Max. Min Max.
8.5 14.6 0 24.1 0 h 0 min 0 1022.1 1026.4

1 Température minimale relevée entre 18:00 UTC la veille et 18:00 UTC le jour donné.

2 Température maximale relevée entre 06:00 UTC le jour donné et 06:00 UTC le lendemain.

3 Vent moyen de la journée basé sur les relevés horaires.

4 Ensoleillement en heures relevé entre 06:00 UTC la veille et 06:00 UTC le jour donné.

5 Précipitations totales tombées entre 06:00 UTC la jour donné et 06:00 UTC le lendemain.

Graphiques horaires